sensor_id;sensor_type;location;lat;lon;timestamp;P1;durP1;ratioP1;P2;durP2;ratioP2
64842;SDS011;51310;52.198;5.422;2023-01-28T00:00:33;9.95;;;6.90;;
64842;SDS011;51310;52.198;5.422;2023-01-28T00:02:59;10.68;;;7.70;;
64842;SDS011;51310;52.198;5.422;2023-01-28T00:05:25;10.97;;;7.07;;
64842;SDS011;51310;52.198;5.422;2023-01-28T00:07:54;10.40;;;7.13;;
64842;SDS011;51310;52.198;5.422;2023-01-28T00:10:21;9.10;;;6.57;;
64842;SDS011;51310;52.198;5.422;2023-01-28T00:12:46;11.05;;;7.57;;
64842;SDS011;51310;52.198;5.422;2023-01-28T00:15:12;10.80;;;7.53;;
64842;SDS011;51310;52.198;5.422;2023-01-28T00:17:38;10.73;;;7.72;;
64842;SDS011;51310;52.198;5.422;2023-01-28T00:20:04;11.30;;;6.75;;
64842;SDS011;51310;52.198;5.422;2023-01-28T00:22:31;9.90;;;6.95;;
64842;SDS011;51310;52.198;5.422;2023-01-28T00:24:57;10.50;;;7.13;;
64842;SDS011;51310;52.198;5.422;2023-01-28T00:27:23;10.35;;;7.22;;
64842;SDS011;51310;52.198;5.422;2023-01-28T00:29:49;14.10;;;7.93;;
64842;SDS011;51310;52.198;5.422;2023-01-28T00:32:14;11.80;;;7.82;;
64842;SDS011;51310;52.198;5.422;2023-01-28T00:34:40;9.98;;;6.97;;
64842;SDS011;51310;52.198;5.422;2023-01-28T00:37:06;10.80;;;7.20;;
64842;SDS011;51310;52.198;5.422;2023-01-28T00:39:32;10.85;;;6.75;;
64842;SDS011;51310;52.198;5.422;2023-01-28T00:41:58;11.07;;;7.07;;
64842;SDS011;51310;52.198;5.422;2023-01-28T00:44:23;9.10;;;6.30;;
64842;SDS011;51310;52.198;5.422;2023-01-28T00:46:49;11.03;;;7.23;;
64842;SDS011;51310;52.198;5.422;2023-01-28T00:49:15;9.90;;;6.93;;
64842;SDS011;51310;52.198;5.422;2023-01-28T00:51:41;13.20;;;8.07;;
64842;SDS011;51310;52.198;5.422;2023-01-28T00:54:06;11.73;;;7.63;;
64842;SDS011;51310;52.198;5.422;2023-01-28T00:56:34;10.35;;;6.90;;
64842;SDS011;51310;52.198;5.422;2023-01-28T00:59:01;10.50;;;7.53;;
64842;SDS011;51310;52.198;5.422;2023-01-28T01:01:27;11.80;;;7.43;;
64842;SDS011;51310;52.198;5.422;2023-01-28T01:03:53;10.25;;;7.22;;
64842;SDS011;51310;52.198;5.422;2023-01-28T01:06:26;11.40;;;7.23;;
64842;SDS011;51310;52.198;5.422;2023-01-28T01:08:59;11.07;;;7.53;;
64842;SDS011;51310;52.198;5.422;2023-01-28T01:11:28;12.77;;;7.50;;
64842;SDS011;51310;52.198;5.422;2023-01-28T01:13:55;11.48;;;7.38;;
64842;SDS011;51310;52.198;5.422;2023-01-28T01:16:23;11.90;;;8.25;;
64842;SDS011;51310;52.198;5.422;2023-01-28T01:18:52;13.10;;;7.65;;
64842;SDS011;51310;52.198;5.422;2023-01-28T01:21:21;11.13;;;7.38;;
64842;SDS011;51310;52.198;5.422;2023-01-28T01:23:51;10.77;;;7.45;;
64842;SDS011;51310;52.198;5.422;2023-01-28T01:26:17;9.52;;;7.07;;
64842;SDS011;51310;52.198;5.422;2023-01-28T01:28:44;11.15;;;6.82;;
64842;SDS011;51310;52.198;5.422;2023-01-28T01:31:11;9.75;;;6.38;;
64842;SDS011;51310;52.198;5.422;2023-01-28T01:33:44;9.37;;;7.00;;
64842;SDS011;51310;52.198;5.422;2023-01-28T01:36:13;10.10;;;7.03;;
64842;SDS011;51310;52.198;5.422;2023-01-28T01:38:41;11.23;;;7.18;;
64842;SDS011;51310;52.198;5.422;2023-01-28T01:41:07;10.88;;;7.25;;
64842;SDS011;51310;52.198;5.422;2023-01-28T01:43:47;9.90;;;7.10;;
64842;SDS011;51310;52.198;5.422;2023-01-28T01:46:39;11.60;;;7.40;;
64842;SDS011;51310;52.198;5.422;2023-01-28T01:49:14;11.25;;;7.30;;
64842;SDS011;51310;52.198;5.422;2023-01-28T01:51:47;9.98;;;7.22;;
64842;SDS011;51310;52.198;5.422;2023-01-28T01:54:23;10.73;;;7.20;;
64842;SDS011;51310;52.198;5.422;2023-01-28T01:56:52;10.60;;;7.00;;
64842;SDS011;51310;52.198;5.422;2023-01-28T01:59:24;9.32;;;6.50;;
64842;SDS011;51310;52.198;5.422;2023-01-28T02:01:54;10.20;;;6.65;;
64842;SDS011;51310;52.198;5.422;2023-01-28T02:04:25;12.30;;;6.47;;
64842;SDS011;51310;52.198;5.422;2023-01-28T02:06:56;11.77;;;6.97;;
64842;SDS011;51310;52.198;5.422;2023-01-28T02:09:26;11.00;;;7.28;;
64842;SDS011;51310;52.198;5.422;2023-01-28T02:12:23;11.52;;;7.25;;
64842;SDS011;51310;52.198;5.422;2023-01-28T02:14:54;11.40;;;7.10;;
64842;SDS011;51310;52.198;5.422;2023-01-28T02:17:47;12.02;;;7.68;;
64842;SDS011;51310;52.198;5.422;2023-01-28T02:20:22;10.93;;;7.15;;
64842;SDS011;51310;52.198;5.422;2023-01-28T02:23:20;9.60;;;6.68;;
64842;SDS011;51310;52.198;5.422;2023-01-28T02:29:12;11.15;;;6.82;;
64842;SDS011;51310;52.198;5.422;2023-01-28T02:31:52;11.38;;;7.30;;
64842;SDS011;51310;52.198;5.422;2023-01-28T02:34:34;11.93;;;7.53;;
64842;SDS011;51310;52.198;5.422;2023-01-28T02:37:27;11.83;;;7.70;;
64842;SDS011;51310;52.198;5.422;2023-01-28T02:40:16;13.52;;;7.80;;
64842;SDS011;51310;52.198;5.422;2023-01-28T02:42:55;11.00;;;7.10;;
64842;SDS011;51310;52.198;5.422;2023-01-28T02:48:14;11.40;;;7.38;;
64842;SDS011;51310;52.198;5.422;2023-01-28T02:51:04;14.13;;;8.25;;
64842;SDS011;51310;52.198;5.422;2023-01-28T02:54:02;12.15;;;8.20;;
64842;SDS011;51310;52.198;5.422;2023-01-28T03:00:23;11.98;;;7.28;;
64842;SDS011;51310;52.198;5.422;2023-01-28T03:05:51;11.13;;;7.15;;
64842;SDS011;51310;52.198;5.422;2023-01-28T03:09:13;11.05;;;7.47;;
64842;SDS011;51310;52.198;5.422;2023-01-28T03:11:46;12.05;;;7.72;;
64842;SDS011;51310;52.198;5.422;2023-01-28T03:15:02;11.07;;;7.13;;
64842;SDS011;51310;52.198;5.422;2023-01-28T03:18:17;11.40;;;7.43;;
64842;SDS011;51310;52.198;5.422;2023-01-28T03:21:11;10.77;;;7.23;;
64842;SDS011;51310;52.198;5.422;2023-01-28T03:24:05;12.52;;;7.20;;
64842;SDS011;51310;52.198;5.422;2023-01-28T03:29:53;16.40;;;7.47;;
64842;SDS011;51310;52.198;5.422;2023-01-28T03:32:43;10.13;;;6.72;;
64842;SDS011;51310;52.198;5.422;2023-01-28T03:35:31;10.38;;;6.47;;
64842;SDS011;51310;52.198;5.422;2023-01-28T03:38:18;11.18;;;6.88;;
64842;SDS011;51310;52.198;5.422;2023-01-28T03:40:50;9.00;;;6.32;;
64842;SDS011;51310;52.198;5.422;2023-01-28T03:43:27;10.48;;;6.47;;
64842;SDS011;51310;52.198;5.422;2023-01-28T03:45:54;10.32;;;6.25;;
64842;SDS011;51310;52.198;5.422;2023-01-28T03:48:22;7.88;;;5.85;;
64842;SDS011;51310;52.198;5.422;2023-01-28T03:50:52;9.77;;;6.65;;
64842;SDS011;51310;52.198;5.422;2023-01-28T03:53:21;9.50;;;6.30;;
64842;SDS011;51310;52.198;5.422;2023-01-28T03:55:48;9.95;;;6.93;;
64842;SDS011;51310;52.198;5.422;2023-01-28T03:58:16;10.45;;;7.30;;
64842;SDS011;51310;52.198;5.422;2023-01-28T04:00:44;10.90;;;6.70;;
64842;SDS011;51310;52.198;5.422;2023-01-28T04:03:12;8.60;;;5.90;;
64842;SDS011;51310;52.198;5.422;2023-01-28T04:08:23;8.32;;;5.75;;
64842;SDS011;51310;52.198;5.422;2023-01-28T04:10:49;8.48;;;5.90;;
64842;SDS011;51310;52.198;5.422;2023-01-28T04:13:15;8.98;;;6.07;;
64842;SDS011;51310;52.198;5.422;2023-01-28T04:15:42;9.10;;;5.88;;
64842;SDS011;51310;52.198;5.422;2023-01-28T04:18:09;7.60;;;5.63;;
64842;SDS011;51310;52.198;5.422;2023-01-28T04:20:35;9.23;;;6.20;;
64842;SDS011;51310;52.198;5.422;2023-01-28T04:23:02;10.02;;;6.57;;
64842;SDS011;51310;52.198;5.422;2023-01-28T04:25:28;10.07;;;6.68;;
64842;SDS011;51310;52.198;5.422;2023-01-28T04:27:55;10.23;;;6.75;;
64842;SDS011;51310;52.198;5.422;2023-01-28T04:30:21;10.53;;;6.83;;
64842;SDS011;51310;52.198;5.422;2023-01-28T04:32:48;10.97;;;6.57;;
64842;SDS011;51310;52.198;5.422;2023-01-28T04:35:14;11.02;;;6.90;;
64842;SDS011;51310;52.198;5.422;2023-01-28T04:37:41;8.60;;;6.53;;
64842;SDS011;51310;52.198;5.422;2023-01-28T04:40:08;10.68;;;7.13;;
64842;SDS011;51310;52.198;5.422;2023-01-28T04:42:36;9.05;;;6.22;;
64842;SDS011;51310;52.198;5.422;2023-01-28T04:45:02;11.80;;;7.57;;
64842;SDS011;51310;52.198;5.422;2023-01-28T04:47:28;9.77;;;6.72;;
64842;SDS011;51310;52.198;5.422;2023-01-28T04:49:54;10.02;;;6.47;;
64842;SDS011;51310;52.198;5.422;2023-01-28T04:52:20;9.35;;;6.35;;
64842;SDS011;51310;52.198;5.422;2023-01-28T04:54:46;11.73;;;7.13;;
64842;SDS011;51310;52.198;5.422;2023-01-28T04:57:11;12.60;;;7.23;;
64842;SDS011;51310;52.198;5.422;2023-01-28T04:59:37;10.63;;;6.63;;
64842;SDS011;51310;52.198;5.422;2023-01-28T05:02:03;12.37;;;7.43;;
64842;SDS011;51310;52.198;5.422;2023-01-28T05:04:28;9.93;;;6.53;;
64842;SDS011;51310;52.198;5.422;2023-01-28T05:06:54;10.03;;;6.60;;
64842;SDS011;51310;52.198;5.422;2023-01-28T05:09:20;11.35;;;6.90;;
64842;SDS011;51310;52.198;5.422;2023-01-28T05:11:45;10.18;;;6.88;;
64842;SDS011;51310;52.198;5.422;2023-01-28T05:14:11;13.85;;;7.82;;
64842;SDS011;51310;52.198;5.422;2023-01-28T05:16:37;13.23;;;6.75;;
64842;SDS011;51310;52.198;5.422;2023-01-28T05:19:02;9.85;;;6.35;;
64842;SDS011;51310;52.198;5.422;2023-01-28T05:21:28;12.63;;;7.75;;
64842;SDS011;51310;52.198;5.422;2023-01-28T05:23:54;11.25;;;6.40;;
64842;SDS011;51310;52.198;5.422;2023-01-28T05:26:20;12.40;;;6.97;;
64842;SDS011;51310;52.198;5.422;2023-01-28T05:28:45;11.10;;;7.00;;
64842;SDS011;51310;52.198;5.422;2023-01-28T05:31:11;10.15;;;6.47;;
64842;SDS011;51310;52.198;5.422;2023-01-28T05:33:37;11.00;;;7.03;;
64842;SDS011;51310;52.198;5.422;2023-01-28T05:36:03;10.18;;;6.35;;
64842;SDS011;51310;52.198;5.422;2023-01-28T05:38:29;11.98;;;6.80;;
64842;SDS011;51310;52.198;5.422;2023-01-28T05:40:55;10.32;;;6.53;;
64842;SDS011;51310;52.198;5.422;2023-01-28T05:43:20;11.27;;;6.95;;
64842;SDS011;51310;52.198;5.422;2023-01-28T05:45:46;10.88;;;6.68;;
64842;SDS011;51310;52.198;5.422;2023-01-28T05:48:12;11.25;;;7.20;;
64842;SDS011;51310;52.198;5.422;2023-01-28T05:50:39;11.07;;;6.97;;
64842;SDS011;51310;52.198;5.422;2023-01-28T05:53:07;11.30;;;7.25;;
64842;SDS011;51310;52.198;5.422;2023-01-28T05:55:33;10.73;;;7.00;;
64842;SDS011;51310;52.198;5.422;2023-01-28T05:57:59;10.25;;;7.10;;
64842;SDS011;51310;52.198;5.422;2023-01-28T06:00:25;11.82;;;7.38;;
64842;SDS011;51310;52.198;5.422;2023-01-28T06:02:51;11.63;;;7.22;;
64842;SDS011;51310;52.198;5.422;2023-01-28T06:05:17;11.37;;;7.03;;
64842;SDS011;51310;52.198;5.422;2023-01-28T06:07:44;11.02;;;7.13;;
64842;SDS011;51310;52.198;5.422;2023-01-28T06:10:13;11.02;;;6.35;;
64842;SDS011;51310;52.198;5.422;2023-01-28T06:12:41;10.18;;;6.68;;
64842;SDS011;51310;52.198;5.422;2023-01-28T06:15:08;11.13;;;7.17;;
64842;SDS011;51310;52.198;5.422;2023-01-28T06:17:34;11.03;;;6.97;;
64842;SDS011;51310;52.198;5.422;2023-01-28T06:20:00;12.73;;;7.63;;
64842;SDS011;51310;52.198;5.422;2023-01-28T06:22:26;11.53;;;6.97;;
64842;SDS011;51310;52.198;5.422;2023-01-28T06:24:51;12.00;;;7.67;;
64842;SDS011;51310;52.198;5.422;2023-01-28T06:27:17;10.97;;;7.10;;
64842;SDS011;51310;52.198;5.422;2023-01-28T06:29:43;11.13;;;7.10;;
64842;SDS011;51310;52.198;5.422;2023-01-28T06:32:08;11.90;;;7.90;;
64842;SDS011;51310;52.198;5.422;2023-01-28T06:34:34;10.83;;;7.17;;
64842;SDS011;51310;52.198;5.422;2023-01-28T06:37:00;12.60;;;7.63;;
64842;SDS011;51310;52.198;5.422;2023-01-28T06:39:28;12.20;;;7.27;;
64842;SDS011;51310;52.198;5.422;2023-01-28T06:41:57;13.50;;;7.50;;
64842;SDS011;51310;52.198;5.422;2023-01-28T06:44:23;13.15;;;8.07;;
64842;SDS011;51310;52.198;5.422;2023-01-28T06:46:48;14.00;;;7.47;;
64842;SDS011;51310;52.198;5.422;2023-01-28T06:49:14;13.05;;;8.18;;
64842;SDS011;51310;52.198;5.422;2023-01-28T06:51:40;14.70;;;8.10;;
64842;SDS011;51310;52.198;5.422;2023-01-28T06:54:06;13.73;;;8.73;;
64842;SDS011;51310;52.198;5.422;2023-01-28T06:56:32;13.17;;;8.40;;
64842;SDS011;51310;52.198;5.422;2023-01-28T06:58:57;15.60;;;8.27;;
64842;SDS011;51310;52.198;5.422;2023-01-28T07:01:23;14.13;;;8.15;;
64842;SDS011;51310;52.198;5.422;2023-01-28T07:03:49;13.55;;;8.00;;
64842;SDS011;51310;52.198;5.422;2023-01-28T07:06:15;12.65;;;7.85;;
64842;SDS011;51310;52.198;5.422;2023-01-28T07:08:40;13.57;;;8.43;;
64842;SDS011;51310;52.198;5.422;2023-01-28T07:11:06;11.82;;;7.90;;
64842;SDS011;51310;52.198;5.422;2023-01-28T07:13:32;11.50;;;7.47;;
64842;SDS011;51310;52.198;5.422;2023-01-28T07:15:59;13.80;;;9.03;;
64842;SDS011;51310;52.198;5.422;2023-01-28T07:18:25;12.32;;;7.50;;
64842;SDS011;51310;52.198;5.422;2023-01-28T07:20:51;13.18;;;8.35;;
64842;SDS011;51310;52.198;5.422;2023-01-28T07:23:16;13.15;;;7.72;;
64842;SDS011;51310;52.198;5.422;2023-01-28T07:25:42;12.97;;;8.47;;
64842;SDS011;51310;52.198;5.422;2023-01-28T07:28:08;14.07;;;8.33;;
64842;SDS011;51310;52.198;5.422;2023-01-28T07:30:35;13.80;;;8.38;;
64842;SDS011;51310;52.198;5.422;2023-01-28T07:33:00;12.15;;;7.65;;
64842;SDS011;51310;52.198;5.422;2023-01-28T07:35:26;14.13;;;8.60;;
64842;SDS011;51310;52.198;5.422;2023-01-28T07:37:54;13.20;;;8.35;;
64842;SDS011;51310;52.198;5.422;2023-01-28T07:40:22;12.70;;;8.43;;
64842;SDS011;51310;52.198;5.422;2023-01-28T07:42:49;14.25;;;8.50;;
64842;SDS011;51310;52.198;5.422;2023-01-28T07:45:16;11.38;;;7.45;;
64842;SDS011;51310;52.198;5.422;2023-01-28T07:47:42;13.70;;;8.00;;
64842;SDS011;51310;52.198;5.422;2023-01-28T07:50:08;13.00;;;8.48;;
64842;SDS011;51310;52.198;5.422;2023-01-28T07:52:36;13.07;;;8.43;;
64842;SDS011;51310;52.198;5.422;2023-01-28T07:55:08;12.85;;;7.95;;
64842;SDS011;51310;52.198;5.422;2023-01-28T07:57:46;13.38;;;8.65;;
64842;SDS011;51310;52.198;5.422;2023-01-28T08:00:33;11.63;;;7.53;;
64842;SDS011;51310;52.198;5.422;2023-01-28T08:03:02;14.00;;;8.48;;
64842;SDS011;51310;52.198;5.422;2023-01-28T08:05:44;11.85;;;7.78;;
64842;SDS011;51310;52.198;5.422;2023-01-28T08:08:13;13.73;;;8.17;;
64842;SDS011;51310;52.198;5.422;2023-01-28T08:10:39;13.00;;;8.90;;
64842;SDS011;51310;52.198;5.422;2023-01-28T08:13:05;12.88;;;8.15;;
64842;SDS011;51310;52.198;5.422;2023-01-28T08:15:33;13.02;;;8.30;;
64842;SDS011;51310;52.198;5.422;2023-01-28T08:17:59;12.87;;;7.70;;
64842;SDS011;51310;52.198;5.422;2023-01-28T08:20:25;13.75;;;9.13;;
64842;SDS011;51310;52.198;5.422;2023-01-28T08:22:53;14.20;;;8.00;;
64842;SDS011;51310;52.198;5.422;2023-01-28T08:25:51;14.50;;;8.70;;
64842;SDS011;51310;52.198;5.422;2023-01-28T08:28:18;11.52;;;7.50;;
64842;SDS011;51310;52.198;5.422;2023-01-28T08:30:45;12.60;;;8.00;;
64842;SDS011;51310;52.198;5.422;2023-01-28T08:33:13;11.43;;;7.50;;
64842;SDS011;51310;52.198;5.422;2023-01-28T08:35:40;12.75;;;8.02;;
64842;SDS011;51310;52.198;5.422;2023-01-28T08:38:07;12.67;;;8.37;;
64842;SDS011;51310;52.198;5.422;2023-01-28T08:40:35;13.05;;;7.95;;
64842;SDS011;51310;52.198;5.422;2023-01-28T08:43:02;12.45;;;7.72;;
64842;SDS011;51310;52.198;5.422;2023-01-28T08:45:28;12.43;;;7.75;;
64842;SDS011;51310;52.198;5.422;2023-01-28T08:47:57;11.32;;;7.85;;
64842;SDS011;51310;52.198;5.422;2023-01-28T08:50:27;13.68;;;8.75;;
64842;SDS011;51310;52.198;5.422;2023-01-28T08:52:59;13.20;;;8.13;;
64842;SDS011;51310;52.198;5.422;2023-01-28T08:55:28;13.10;;;8.57;;
64842;SDS011;51310;52.198;5.422;2023-01-28T08:57:54;12.83;;;8.43;;
64842;SDS011;51310;52.198;5.422;2023-01-28T09:00:20;13.70;;;8.25;;
64842;SDS011;51310;52.198;5.422;2023-01-28T09:02:49;13.85;;;8.77;;
64842;SDS011;51310;52.198;5.422;2023-01-28T09:05:17;13.98;;;8.90;;
64842;SDS011;51310;52.198;5.422;2023-01-28T09:07:44;14.00;;;8.77;;
64842;SDS011;51310;52.198;5.422;2023-01-28T09:10:10;15.07;;;9.05;;
64842;SDS011;51310;52.198;5.422;2023-01-28T09:12:36;13.13;;;8.17;;
64842;SDS011;51310;52.198;5.422;2023-01-28T09:15:03;13.20;;;8.02;;
64842;SDS011;51310;52.198;5.422;2023-01-28T09:17:30;11.53;;;7.80;;
64842;SDS011;51310;52.198;5.422;2023-01-28T09:19:55;11.70;;;7.97;;
64842;SDS011;51310;52.198;5.422;2023-01-28T09:22:21;11.50;;;7.53;;
64842;SDS011;51310;52.198;5.422;2023-01-28T09:24:47;11.30;;;7.43;;
64842;SDS011;51310;52.198;5.422;2023-01-28T09:27:13;15.35;;;8.73;;
64842;SDS011;51310;52.198;5.422;2023-01-28T09:29:38;12.77;;;7.93;;
64842;SDS011;51310;52.198;5.422;2023-01-28T09:32:05;11.48;;;7.88;;
64842;SDS011;51310;52.198;5.422;2023-01-28T09:34:33;12.77;;;8.18;;
64842;SDS011;51310;52.198;5.422;2023-01-28T09:36:59;12.65;;;8.05;;
64842;SDS011;51310;52.198;5.422;2023-01-28T09:39:25;13.55;;;8.68;;
64842;SDS011;51310;52.198;5.422;2023-01-28T09:45:14;11.95;;;7.55;;
64842;SDS011;51310;52.198;5.422;2023-01-28T09:47:51;11.93;;;7.60;;
64842;SDS011;51310;52.198;5.422;2023-01-28T09:53:12;12.73;;;6.97;;
64842;SDS011;51310;52.198;5.422;2023-01-28T09:56:00;12.77;;;8.02;;
64842;SDS011;51310;52.198;5.422;2023-01-28T09:58:30;13.00;;;7.47;;
64842;SDS011;51310;52.198;5.422;2023-01-28T10:00:58;12.38;;;7.32;;
64842;SDS011;51310;52.198;5.422;2023-01-28T10:06:26;13.73;;;7.75;;
64842;SDS011;51310;52.198;5.422;2023-01-28T10:12:15;11.17;;;7.10;;
64842;SDS011;51310;52.198;5.422;2023-01-28T10:15:19;11.98;;;6.80;;
64842;SDS011;51310;52.198;5.422;2023-01-28T10:17:51;11.25;;;6.82;;
64842;SDS011;51310;52.198;5.422;2023-01-28T10:20:30;11.70;;;6.68;;
64842;SDS011;51310;52.198;5.422;2023-01-28T10:23:09;12.55;;;7.35;;
64842;SDS011;51310;52.198;5.422;2023-01-28T10:25:54;12.27;;;7.28;;
64842;SDS011;51310;52.198;5.422;2023-01-28T10:28:27;11.60;;;7.00;;
64842;SDS011;51310;52.198;5.422;2023-01-28T10:30:54;11.57;;;5.85;;
64842;SDS011;51310;52.198;5.422;2023-01-28T10:35:52;9.25;;;5.43;;
64842;SDS011;51310;52.198;5.422;2023-01-28T10:38:24;9.60;;;5.00;;
64842;SDS011;51310;52.198;5.422;2023-01-28T10:40:51;10.18;;;5.72;;
64842;SDS011;51310;52.198;5.422;2023-01-28T10:43:22;7.75;;;4.90;;
64842;SDS011;51310;52.198;5.422;2023-01-28T10:51:37;8.95;;;4.65;;
64842;SDS011;51310;52.198;5.422;2023-01-28T10:54:24;8.45;;;4.60;;
64842;SDS011;51310;52.198;5.422;2023-01-28T10:56:59;9.20;;;5.30;;
64842;SDS011;51310;52.198;5.422;2023-01-28T10:59:30;8.47;;;5.23;;
64842;SDS011;51310;52.198;5.422;2023-01-28T11:02:01;10.48;;;5.15;;
64842;SDS011;51310;52.198;5.422;2023-01-28T11:04:44;8.30;;;4.87;;
64842;SDS011;51310;52.198;5.422;2023-01-28T11:07:17;6.13;;;3.67;;
64842;SDS011;51310;52.198;5.422;2023-01-28T11:09:49;9.10;;;4.18;;
64842;SDS011;51310;52.198;5.422;2023-01-28T11:14:55;9.75;;;4.57;;
64842;SDS011;51310;52.198;5.422;2023-01-28T11:17:24;7.03;;;4.20;;
64842;SDS011;51310;52.198;5.422;2023-01-28T11:20:00;7.35;;;3.92;;
64842;SDS011;51310;52.198;5.422;2023-01-28T11:22:55;8.63;;;4.50;;
64842;SDS011;51310;52.198;5.422;2023-01-28T11:28:00;7.43;;;3.60;;
64842;SDS011;51310;52.198;5.422;2023-01-28T11:30:32;8.23;;;4.15;;
64842;SDS011;51310;52.198;5.422;2023-01-28T11:33:17;9.38;;;4.00;;
64842;SDS011;51310;52.198;5.422;2023-01-28T11:35:56;6.78;;;3.70;;
64842;SDS011;51310;52.198;5.422;2023-01-28T11:38:30;7.85;;;4.20;;
64842;SDS011;51310;52.198;5.422;2023-01-28T11:40:56;6.20;;;3.70;;
64842;SDS011;51310;52.198;5.422;2023-01-28T11:43:25;6.15;;;3.25;;
64842;SDS011;51310;52.198;5.422;2023-01-28T11:45:57;9.50;;;3.42;;
64842;SDS011;51310;52.198;5.422;2023-01-28T11:49:13;6.45;;;3.60;;
64842;SDS011;51310;52.198;5.422;2023-01-28T11:52:08;8.35;;;3.88;;
64842;SDS011;51310;52.198;5.422;2023-01-28T12:04:18;7.25;;;4.05;;
64842;SDS011;51310;52.198;5.422;2023-01-28T12:07:20;6.43;;;3.70;;
64842;SDS011;51310;52.198;5.422;2023-01-28T12:13:13;7.82;;;4.32;;
64842;SDS011;51310;52.198;5.422;2023-01-28T12:22:33;7.20;;;3.90;;
64842;SDS011;51310;52.198;5.422;2023-01-28T12:25:28;5.13;;;2.92;;
64842;SDS011;51310;52.198;5.422;2023-01-28T12:28:38;7.68;;;3.95;;
64842;SDS011;51310;52.198;5.422;2023-01-28T12:31:59;5.47;;;3.25;;
64842;SDS011;51310;52.198;5.422;2023-01-28T12:45:19;6.55;;;3.25;;
64842;SDS011;51310;52.198;5.422;2023-01-28T12:48:14;5.03;;;2.97;;
64842;SDS011;51310;52.198;5.422;2023-01-28T12:50:58;7.47;;;3.78;;
64842;SDS011;51310;52.198;5.422;2023-01-28T12:53:39;7.50;;;3.80;;
64842;SDS011;51310;52.198;5.422;2023-01-28T12:56:30;7.72;;;3.97;;
64842;SDS011;51310;52.198;5.422;2023-01-28T12:59:08;6.22;;;3.70;;
64842;SDS011;51310;52.198;5.422;2023-01-28T13:04:41;6.75;;;3.85;;
64842;SDS011;51310;52.198;5.422;2023-01-28T13:07:29;8.50;;;4.18;;
64842;SDS011;51310;52.198;5.422;2023-01-28T13:12:59;7.15;;;3.50;;
64842;SDS011;51310;52.198;5.422;2023-01-28T13:15:25;7.63;;;4.10;;
64842;SDS011;51310;52.198;5.422;2023-01-28T13:17:58;6.63;;;3.70;;
64842;SDS011;51310;52.198;5.422;2023-01-28T13:20:30;6.72;;;3.40;;
64842;SDS011;51310;52.198;5.422;2023-01-28T13:23:00;6.57;;;3.40;;
64842;SDS011;51310;52.198;5.422;2023-01-28T13:25:31;6.88;;;3.83;;
64842;SDS011;51310;52.198;5.422;2023-01-28T13:28:02;7.37;;;4.03;;
64842;SDS011;51310;52.198;5.422;2023-01-28T13:30:32;7.05;;;3.80;;
64842;SDS011;51310;52.198;5.422;2023-01-28T13:33:28;9.32;;;4.35;;
64842;SDS011;51310;52.198;5.422;2023-01-28T13:36:07;7.67;;;4.30;;
64842;SDS011;51310;52.198;5.422;2023-01-28T13:38:42;7.40;;;3.97;;
64842;SDS011;51310;52.198;5.422;2023-01-28T13:41:10;7.22;;;3.70;;
64842;SDS011;51310;52.198;5.422;2023-01-28T13:43:39;8.00;;;3.93;;
64842;SDS011;51310;52.198;5.422;2023-01-28T13:46:25;6.20;;;3.67;;
64842;SDS011;51310;52.198;5.422;2023-01-28T13:48:54;6.20;;;3.33;;
64842;SDS011;51310;52.198;5.422;2023-01-28T13:51:24;6.38;;;3.35;;
64842;SDS011;51310;52.198;5.422;2023-01-28T13:53:59;5.55;;;3.47;;
64842;SDS011;51310;52.198;5.422;2023-01-28T13:56:40;6.60;;;3.65;;
64842;SDS011;51310;52.198;5.422;2023-01-28T14:02:19;7.60;;;3.67;;
64842;SDS011;51310;52.198;5.422;2023-01-28T14:04:57;7.47;;;2.97;;
64842;SDS011;51310;52.198;5.422;2023-01-28T14:08:00;10.02;;;3.83;;
64842;SDS011;51310;52.198;5.422;2023-01-28T14:17:09;5.63;;;3.05;;
64842;SDS011;51310;52.198;5.422;2023-01-28T14:20:21;4.25;;;2.60;;
64842;SDS011;51310;52.198;5.422;2023-01-28T14:22:50;5.50;;;2.70;;
64842;SDS011;51310;52.198;5.422;2023-01-28T14:25:32;5.47;;;2.88;;
64842;SDS011;51310;52.198;5.422;2023-01-28T14:28:14;4.70;;;2.78;;
64842;SDS011;51310;52.198;5.422;2023-01-28T14:31:06;5.43;;;2.80;;
64842;SDS011;51310;52.198;5.422;2023-01-28T14:33:45;5.47;;;2.80;;
64842;SDS011;51310;52.198;5.422;2023-01-28T14:36:11;6.75;;;3.20;;
64842;SDS011;51310;52.198;5.422;2023-01-28T14:38:38;5.50;;;2.90;;
64842;SDS011;51310;52.198;5.422;2023-01-28T14:41:08;6.80;;;3.00;;
64842;SDS011;51310;52.198;5.422;2023-01-28T14:43:47;6.00;;;2.70;;
64842;SDS011;51310;52.198;5.422;2023-01-28T14:46:29;6.65;;;2.97;;
64842;SDS011;51310;52.198;5.422;2023-01-28T14:49:23;8.07;;;3.10;;
64842;SDS011;51310;52.198;5.422;2023-01-28T14:55:26;7.47;;;2.95;;
64842;SDS011;51310;52.198;5.422;2023-01-28T14:58:47;7.87;;;3.13;;
64842;SDS011;51310;52.198;5.422;2023-01-28T15:01:19;4.30;;;2.43;;
64842;SDS011;51310;52.198;5.422;2023-01-28T15:03:52;5.40;;;2.35;;
64842;SDS011;51310;52.198;5.422;2023-01-28T15:06:19;6.20;;;2.13;;
64842;SDS011;51310;52.198;5.422;2023-01-28T15:08:49;5.45;;;2.45;;
64842;SDS011;51310;52.198;5.422;2023-01-28T15:11:19;6.40;;;2.78;;
64842;SDS011;51310;52.198;5.422;2023-01-28T15:13:51;5.25;;;2.45;;
64842;SDS011;51310;52.198;5.422;2023-01-28T15:16:22;5.88;;;2.75;;
64842;SDS011;51310;52.198;5.422;2023-01-28T15:18:54;5.85;;;2.75;;
64842;SDS011;51310;52.198;5.422;2023-01-28T15:21:22;7.47;;;3.00;;
64842;SDS011;51310;52.198;5.422;2023-01-28T15:23:50;6.22;;;2.50;;
64842;SDS011;51310;52.198;5.422;2023-01-28T15:26:27;6.18;;;3.45;;
64842;SDS011;51310;52.198;5.422;2023-01-28T15:28:58;6.13;;;3.03;;
64842;SDS011;51310;52.198;5.422;2023-01-28T15:31:46;4.85;;;2.65;;
64842;SDS011;51310;52.198;5.422;2023-01-28T15:36:40;4.57;;;2.60;;
64842;SDS011;51310;52.198;5.422;2023-01-28T15:39:17;6.55;;;2.95;;
64842;SDS011;51310;52.198;5.422;2023-01-28T15:41:49;9.48;;;3.13;;
64842;SDS011;51310;52.198;5.422;2023-01-28T15:44:24;6.05;;;3.08;;
64842;SDS011;51310;52.198;5.422;2023-01-28T15:46:59;6.40;;;3.00;;
64842;SDS011;51310;52.198;5.422;2023-01-28T15:49:30;7.00;;;3.23;;
64842;SDS011;51310;52.198;5.422;2023-01-28T15:52:01;6.47;;;3.45;;
64842;SDS011;51310;52.198;5.422;2023-01-28T15:54:28;6.78;;;3.67;;
64842;SDS011;51310;52.198;5.422;2023-01-28T15:56:55;5.60;;;3.25;;
64842;SDS011;51310;52.198;5.422;2023-01-28T15:59:25;6.90;;;3.42;;
64842;SDS011;51310;52.198;5.422;2023-01-28T16:04:58;5.80;;;2.28;;
64842;SDS011;51310;52.198;5.422;2023-01-28T16:07:27;5.55;;;2.65;;
64842;SDS011;51310;52.198;5.422;2023-01-28T16:09:56;6.50;;;2.70;;
64842;SDS011;51310;52.198;5.422;2023-01-28T16:12:26;4.97;;;2.55;;
64842;SDS011;51310;52.198;5.422;2023-01-28T16:17:28;6.15;;;2.78;;
64842;SDS011;51310;52.198;5.422;2023-01-28T16:20:05;6.38;;;3.33;;
64842;SDS011;51310;52.198;5.422;2023-01-28T16:22:43;4.80;;;2.50;;
64842;SDS011;51310;52.198;5.422;2023-01-28T16:28:10;4.72;;;2.83;;
64842;SDS011;51310;52.198;5.422;2023-01-28T16:30:43;7.90;;;2.70;;
64842;SDS011;51310;52.198;5.422;2023-01-28T16:33:16;5.40;;;2.43;;
64842;SDS011;51310;52.198;5.422;2023-01-28T16:35:44;14.13;;;4.07;;
64842;SDS011;51310;52.198;5.422;2023-01-28T16:38:10;7.13;;;3.10;;
64842;SDS011;51310;52.198;5.422;2023-01-28T16:40:40;6.82;;;3.38;;
64842;SDS011;51310;52.198;5.422;2023-01-28T16:43:09;8.88;;;4.20;;
64842;SDS011;51310;52.198;5.422;2023-01-28T16:45:36;6.32;;;3.72;;
64842;SDS011;51310;52.198;5.422;2023-01-28T16:48:03;7.88;;;4.10;;
64842;SDS011;51310;52.198;5.422;2023-01-28T16:50:30;6.82;;;3.58;;
64842;SDS011;51310;52.198;5.422;2023-01-28T16:52:57;12.32;;;5.30;;
64842;SDS011;51310;52.198;5.422;2023-01-28T16:55:24;9.40;;;4.25;;